sensor_id;sensor_type;location;lat;lon;timestamp;temperature;humidity
27803;DHT22;15182;48.174;11.562;2023-04-24T00:02:29;16.40;95.10
27803;DHT22;15182;48.174;11.562;2023-04-24T00:05:02;16.40;95.20
27803;DHT22;15182;48.174;11.562;2023-04-24T00:07:35;16.40;95.20
27803;DHT22;15182;48.174;11.562;2023-04-24T00:10:07;16.40;95.30
27803;DHT22;15182;48.174;11.562;2023-04-24T00:12:39;16.40;95.30
27803;DHT22;15182;48.174;11.562;2023-04-24T00:15:12;16.40;95.20
27803;DHT22;15182;48.174;11.562;2023-04-24T00:17:43;16.40;95.30
27803;DHT22;15182;48.174;11.562;2023-04-24T00:20:15;16.50;95.30
27803;DHT22;15182;48.174;11.562;2023-04-24T00:22:47;16.50;95.20
27803;DHT22;15182;48.174;11.562;2023-04-24T00:25:22;16.50;95.30
27803;DHT22;15182;48.174;11.562;2023-04-24T00:27:53;16.50;95.30
27803;DHT22;15182;48.174;11.562;2023-04-24T00:30:26;16.60;95.20
27803;DHT22;15182;48.174;11.562;2023-04-24T00:32:57;16.60;95.20
27803;DHT22;15182;48.174;11.562;2023-04-24T00:35:29;16.60;95.20
27803;DHT22;15182;48.174;11.562;2023-04-24T00:38:00;16.60;95.20
27803;DHT22;15182;48.174;11.562;2023-04-24T00:40:33;16.60;95.20
27803;DHT22;15182;48.174;11.562;2023-04-24T00:43:02;16.60;95.10
27803;DHT22;15182;48.174;11.562;2023-04-24T00:45:34;16.60;94.90
27803;DHT22;15182;48.174;11.562;2023-04-24T00:48:05;16.60;94.90
27803;DHT22;15182;48.174;11.562;2023-04-24T00:50:38;16.60;94.90
27803;DHT22;15182;48.174;11.562;2023-04-24T00:53:10;16.60;95.30
27803;DHT22;15182;48.174;11.562;2023-04-24T00:55:42;16.50;94.90
27803;DHT22;15182;48.174;11.562;2023-04-24T00:58:16;16.50;94.80
27803;DHT22;15182;48.174;11.562;2023-04-24T01:00:48;16.50;94.80
27803;DHT22;15182;48.174;11.562;2023-04-24T01:03:24;16.40;94.70
27803;DHT22;15182;48.174;11.562;2023-04-24T01:05:58;16.40;94.80
27803;DHT22;15182;48.174;11.562;2023-04-24T01:08:30;16.30;94.70
27803;DHT22;15182;48.174;11.562;2023-04-24T01:11:05;16.30;95.00
27803;DHT22;15182;48.174;11.562;2023-04-24T01:13:36;16.20;94.70
27803;DHT22;15182;48.174;11.562;2023-04-24T01:16:08;16.20;94.70
27803;DHT22;15182;48.174;11.562;2023-04-24T01:18:39;16.10;94.60
27803;DHT22;15182;48.174;11.562;2023-04-24T01:21:15;16.00;94.60
27803;DHT22;15182;48.174;11.562;2023-04-24T01:23:48;15.90;94.80
27803;DHT22;15182;48.174;11.562;2023-04-24T01:26:22;15.90;94.90
27803;DHT22;15182;48.174;11.562;2023-04-24T01:28:54;15.90;95.00
27803;DHT22;15182;48.174;11.562;2023-04-24T01:31:28;15.80;94.90
27803;DHT22;15182;48.174;11.562;2023-04-24T01:33:59;15.80;94.90
27803;DHT22;15182;48.174;11.562;2023-04-24T01:36:32;15.80;94.80
27803;DHT22;15182;48.174;11.562;2023-04-24T01:39:05;15.80;94.80
27803;DHT22;15182;48.174;11.562;2023-04-24T01:41:37;15.70;94.90
27803;DHT22;15182;48.174;11.562;2023-04-24T01:44:08;15.70;94.90
27803;DHT22;15182;48.174;11.562;2023-04-24T01:46:40;15.70;94.90
27803;DHT22;15182;48.174;11.562;2023-04-24T01:49:12;15.60;94.80
27803;DHT22;15182;48.174;11.562;2023-04-24T01:51:44;15.60;94.80
27803;DHT22;15182;48.174;11.562;2023-04-24T01:54:17;15.60;94.90
27803;DHT22;15182;48.174;11.562;2023-04-24T01:56:49;15.50;94.90
27803;DHT22;15182;48.174;11.562;2023-04-24T01:59:23;15.50;94.90
27803;DHT22;15182;48.174;11.562;2023-04-24T02:01:56;15.50;95.10
27803;DHT22;15182;48.174;11.562;2023-04-24T02:04:29;15.50;95.10
27803;DHT22;15182;48.174;11.562;2023-04-24T02:07:00;15.50;95.20
27803;DHT22;15182;48.174;11.562;2023-04-24T02:09:35;15.50;95.10
27803;DHT22;15182;48.174;11.562;2023-04-24T02:12:08;15.50;95.00
27803;DHT22;15182;48.174;11.562;2023-04-24T02:14:39;15.50;95.00
27803;DHT22;15182;48.174;11.562;2023-04-24T02:17:12;15.50;95.10
27803;DHT22;15182;48.174;11.562;2023-04-24T02:19:44;15.50;95.00
27803;DHT22;15182;48.174;11.562;2023-04-24T02:22:16;15.40;95.00
27803;DHT22;15182;48.174;11.562;2023-04-24T02:24:48;15.50;95.00
27803;DHT22;15182;48.174;11.562;2023-04-24T02:27:19;15.40;95.00
27803;DHT22;15182;48.174;11.562;2023-04-24T02:29:51;15.40;95.00
27803;DHT22;15182;48.174;11.562;2023-04-24T02:32:25;15.40;95.10
27803;DHT22;15182;48.174;11.562;2023-04-24T02:34:56;15.40;95.10
27803;DHT22;15182;48.174;11.562;2023-04-24T02:37:29;15.40;95.00
27803;DHT22;15182;48.174;11.562;2023-04-24T02:40:02;15.40;95.10
27803;DHT22;15182;48.174;11.562;2023-04-24T02:42:35;15.30;95.10
27803;DHT22;15182;48.174;11.562;2023-04-24T02:45:06;15.30;95.20
27803;DHT22;15182;48.174;11.562;2023-04-24T02:47:38;15.30;95.20
27803;DHT22;15182;48.174;11.562;2023-04-24T02:50:10;15.30;95.10
27803;DHT22;15182;48.174;11.562;2023-04-24T02:52:41;15.20;95.10
27803;DHT22;15182;48.174;11.562;2023-04-24T02:55:15;15.30;95.20
27803;DHT22;15182;48.174;11.562;2023-04-24T02:57:44;15.20;95.30
27803;DHT22;15182;48.174;11.562;2023-04-24T03:00:17;15.20;95.30
27803;DHT22;15182;48.174;11.562;2023-04-24T03:02:48;15.20;95.30
27803;DHT22;15182;48.174;11.562;2023-04-24T03:05:19;15.20;95.40
27803;DHT22;15182;48.174;11.562;2023-04-24T03:07:50;15.20;95.80
27803;DHT22;15182;48.174;11.562;2023-04-24T03:10:24;15.10;95.40
27803;DHT22;15182;48.174;11.562;2023-04-24T03:12:56;15.10;95.50
27803;DHT22;15182;48.174;11.562;2023-04-24T03:15:30;15.10;95.40
27803;DHT22;15182;48.174;11.562;2023-04-24T03:18:02;15.10;95.50
27803;DHT22;15182;48.174;11.562;2023-04-24T03:20:35;15.10;95.60
27803;DHT22;15182;48.174;11.562;2023-04-24T03:23:06;15.10;95.70
27803;DHT22;15182;48.174;11.562;2023-04-24T03:25:39;15.00;95.70
27803;DHT22;15182;48.174;11.562;2023-04-24T03:28:13;15.00;95.90
27803;DHT22;15182;48.174;11.562;2023-04-24T03:30:53;15.00;95.80
27803;DHT22;15182;48.174;11.562;2023-04-24T03:33:26;15.00;95.80
27803;DHT22;15182;48.174;11.562;2023-04-24T03:36:02;15.00;95.90
27803;DHT22;15182;48.174;11.562;2023-04-24T03:38:41;15.00;96.00
27803;DHT22;15182;48.174;11.562;2023-04-24T03:41:23;14.90;96.10
27803;DHT22;15182;48.174;11.562;2023-04-24T03:44:01;14.90;96.10
27803;DHT22;15182;48.174;11.562;2023-04-24T03:46:35;14.90;96.20
27803;DHT22;15182;48.174;11.562;2023-04-24T03:49:08;14.90;96.40
27803;DHT22;15182;48.174;11.562;2023-04-24T03:51:45;14.90;96.40
27803;DHT22;15182;48.174;11.562;2023-04-24T03:54:23;14.80;96.50
27803;DHT22;15182;48.174;11.562;2023-04-24T03:56:57;14.80;96.50
27803;DHT22;15182;48.174;11.562;2023-04-24T03:59:30;14.80;96.60
27803;DHT22;15182;48.174;11.562;2023-04-24T04:02:16;14.90;96.60
27803;DHT22;15182;48.174;11.562;2023-04-24T04:04:48;14.90;96.70
27803;DHT22;15182;48.174;11.562;2023-04-24T04:07:20;14.90;96.70
27803;DHT22;15182;48.174;11.562;2023-04-24T04:09:49;14.90;96.80
27803;DHT22;15182;48.174;11.562;2023-04-24T04:12:23;14.90;97.20
27803;DHT22;15182;48.174;11.562;2023-04-24T04:14:54;15.00;96.90
27803;DHT22;15182;48.174;11.562;2023-04-24T04:17:26;15.00;96.80
27803;DHT22;15182;48.174;11.562;2023-04-24T04:19:58;15.00;96.90
27803;DHT22;15182;48.174;11.562;2023-04-24T04:22:31;15.10;96.80
27803;DHT22;15182;48.174;11.562;2023-04-24T04:25:04;15.10;96.80
27803;DHT22;15182;48.174;11.562;2023-04-24T04:27:37;15.10;96.80
27803;DHT22;15182;48.174;11.562;2023-04-24T04:30:12;15.20;96.80
27803;DHT22;15182;48.174;11.562;2023-04-24T04:32:58;15.20;96.80
27803;DHT22;15182;48.174;11.562;2023-04-24T04:35:31;15.20;96.80
27803;DHT22;15182;48.174;11.562;2023-04-24T04:38:03;15.20;96.70
27803;DHT22;15182;48.174;11.562;2023-04-24T04:40:51;15.20;96.70
27803;DHT22;15182;48.174;11.562;2023-04-24T04:43:26;15.20;96.70
27803;DHT22;15182;48.174;11.562;2023-04-24T04:45:59;15.20;96.70
27803;DHT22;15182;48.174;11.562;2023-04-24T04:48:55;15.20;96.70
27803;DHT22;15182;48.174;11.562;2023-04-24T04:51:29;15.20;96.60
27803;DHT22;15182;48.174;11.562;2023-04-24T04:54:01;15.20;96.70
27803;DHT22;15182;48.174;11.562;2023-04-24T04:56:32;15.30;96.70
27803;DHT22;15182;48.174;11.562;2023-04-24T04:59:05;15.30;96.70
27803;DHT22;15182;48.174;11.562;2023-04-24T05:01:39;15.30;96.80
27803;DHT22;15182;48.174;11.562;2023-04-24T05:04:13;15.30;96.80
27803;DHT22;15182;48.174;11.562;2023-04-24T05:06:47;15.30;96.70
27803;DHT22;15182;48.174;11.562;2023-04-24T05:09:20;15.30;96.70
27803;DHT22;15182;48.174;11.562;2023-04-24T05:11:59;15.20;96.60
27803;DHT22;15182;48.174;11.562;2023-04-24T05:14:36;15.20;96.90
27803;DHT22;15182;48.174;11.562;2023-04-24T05:17:08;15.20;96.50
27803;DHT22;15182;48.174;11.562;2023-04-24T05:19:40;15.20;96.50
27803;DHT22;15182;48.174;11.562;2023-04-24T05:22:11;15.10;96.50
27803;DHT22;15182;48.174;11.562;2023-04-24T05:24:52;15.10;96.50
27803;DHT22;15182;48.174;11.562;2023-04-24T05:27:36;15.00;96.40
27803;DHT22;15182;48.174;11.562;2023-04-24T05:30:15;15.00;96.40
27803;DHT22;15182;48.174;11.562;2023-04-24T05:32:48;15.00;96.50
27803;DHT22;15182;48.174;11.562;2023-04-24T05:35:20;14.90;96.60
27803;DHT22;15182;48.174;11.562;2023-04-24T05:37:52;14.90;96.50
27803;DHT22;15182;48.174;11.562;2023-04-24T05:40:24;14.90;96.60
27803;DHT22;15182;48.174;11.562;2023-04-24T05:42:57;14.80;96.60
27803;DHT22;15182;48.174;11.562;2023-04-24T05:45:30;14.80;96.70
27803;DHT22;15182;48.174;11.562;2023-04-24T05:48:03;14.80;96.80
27803;DHT22;15182;48.174;11.562;2023-04-24T05:50:35;14.80;96.70
27803;DHT22;15182;48.174;11.562;2023-04-24T05:53:06;14.80;96.80
27803;DHT22;15182;48.174;11.562;2023-04-24T05:55:38;14.80;96.80
27803;DHT22;15182;48.174;11.562;2023-04-24T05:58:10;14.70;96.80
27803;DHT22;15182;48.174;11.562;2023-04-24T06:00:43;14.70;96.80
27803;DHT22;15182;48.174;11.562;2023-04-24T06:03:15;14.70;96.80
27803;DHT22;15182;48.174;11.562;2023-04-24T06:05:46;14.70;96.80
27803;DHT22;15182;48.174;11.562;2023-04-24T06:08:18;14.70;96.90
27803;DHT22;15182;48.174;11.562;2023-04-24T06:10:52;14.70;97.00
27803;DHT22;15182;48.174;11.562;2023-04-24T06:13:24;14.70;97.10
27803;DHT22;15182;48.174;11.562;2023-04-24T06:16:15;14.80;97.20
27803;DHT22;15182;48.174;11.562;2023-04-24T06:18:55;14.80;97.40
27803;DHT22;15182;48.174;11.562;2023-04-24T06:21:26;14.80;97.20
27803;DHT22;15182;48.174;11.562;2023-04-24T06:23:59;14.90;97.20
27803;DHT22;15182;48.174;11.562;2023-04-24T06:26:32;14.90;97.30
27803;DHT22;15182;48.174;11.562;2023-04-24T06:29:06;15.00;97.20
27803;DHT22;15182;48.174;11.562;2023-04-24T06:31:39;15.00;97.20
27803;DHT22;15182;48.174;11.562;2023-04-24T06:34:10;15.00;97.10
27803;DHT22;15182;48.174;11.562;2023-04-24T06:36:42;15.00;97.00
27803;DHT22;15182;48.174;11.562;2023-04-24T06:39:13;15.00;96.90
27803;DHT22;15182;48.174;11.562;2023-04-24T06:41:44;15.00;97.00
27803;DHT22;15182;48.174;11.562;2023-04-24T06:44:21;15.00;97.00
27803;DHT22;15182;48.174;11.562;2023-04-24T06:46:54;15.10;97.00
27803;DHT22;15182;48.174;11.562;2023-04-24T06:49:25;15.10;97.00
27803;DHT22;15182;48.174;11.562;2023-04-24T06:51:58;15.10;97.00
27803;DHT22;15182;48.174;11.562;2023-04-24T06:54:30;15.10;96.90
27803;DHT22;15182;48.174;11.562;2023-04-24T06:57:04;15.20;96.80
27803;DHT22;15182;48.174;11.562;2023-04-24T06:59:35;15.20;96.80
27803;DHT22;15182;48.174;11.562;2023-04-24T07:02:09;15.20;96.70
27803;DHT22;15182;48.174;11.562;2023-04-24T07:04:40;15.20;96.70
27803;DHT22;15182;48.174;11.562;2023-04-24T07:07:14;15.20;96.60
27803;DHT22;15182;48.174;11.562;2023-04-24T07:09:45;15.20;96.70
27803;DHT22;15182;48.174;11.562;2023-04-24T07:12:16;15.20;96.60
27803;DHT22;15182;48.174;11.562;2023-04-24T07:14:49;15.30;96.60
27803;DHT22;15182;48.174;11.562;2023-04-24T07:17:23;15.30;96.60
27803;DHT22;15182;48.174;11.562;2023-04-24T07:19:54;15.30;96.40
27803;DHT22;15182;48.174;11.562;2023-04-24T07:22:26;15.30;96.40
27803;DHT22;15182;48.174;11.562;2023-04-24T07:24:59;15.40;96.40
27803;DHT22;15182;48.174;11.562;2023-04-24T07:27:31;15.40;96.30
27803;DHT22;15182;48.174;11.562;2023-04-24T07:30:05;15.40;96.20
27803;DHT22;15182;48.174;11.562;2023-04-24T07:32:39;15.40;96.20
27803;DHT22;15182;48.174;11.562;2023-04-24T07:35:13;15.40;96.20
27803;DHT22;15182;48.174;11.562;2023-04-24T07:37:44;15.40;96.40
27803;DHT22;15182;48.174;11.562;2023-04-24T07:40:16;15.50;96.40
27803;DHT22;15182;48.174;11.562;2023-04-24T07:42:47;15.50;96.30
27803;DHT22;15182;48.174;11.562;2023-04-24T07:45:19;15.60;96.30
27803;DHT22;15182;48.174;11.562;2023-04-24T07:47:52;15.60;96.20
27803;DHT22;15182;48.174;11.562;2023-04-24T07:50:23;15.70;96.00
27803;DHT22;15182;48.174;11.562;2023-04-24T07:52:54;15.60;96.00
27803;DHT22;15182;48.174;11.562;2023-04-24T07:55:27;15.70;96.00
27803;DHT22;15182;48.174;11.562;2023-04-24T07:57:58;15.70;96.00
27803;DHT22;15182;48.174;11.562;2023-04-24T08:00:29;15.80;95.80
27803;DHT22;15182;48.174;11.562;2023-04-24T08:03:02;15.80;95.70
27803;DHT22;15182;48.174;11.562;2023-04-24T08:05:33;15.80;95.60
27803;DHT22;15182;48.174;11.562;2023-04-24T08:08:07;15.80;95.70
27803;DHT22;15182;48.174;11.562;2023-04-24T08:10:38;15.80;95.70
27803;DHT22;15182;48.174;11.562;2023-04-24T08:13:11;15.90;95.60
27803;DHT22;15182;48.174;11.562;2023-04-24T08:15:42;15.90;95.40
27803;DHT22;15182;48.174;11.562;2023-04-24T08:18:15;15.90;95.30
27803;DHT22;15182;48.174;11.562;2023-04-24T08:20:46;15.90;95.20
27803;DHT22;15182;48.174;11.562;2023-04-24T08:23:19;15.90;95.20
27803;DHT22;15182;48.174;11.562;2023-04-24T08:25:51;15.80;95.20
27803;DHT22;15182;48.174;11.562;2023-04-24T08:28:22;15.80;95.10
27803;DHT22;15182;48.174;11.562;2023-04-24T08:30:53;15.80;95.00
27803;DHT22;15182;48.174;11.562;2023-04-24T08:33:26;15.70;95.10
27803;DHT22;15182;48.174;11.562;2023-04-24T08:36:03;15.70;95.30
27803;DHT22;15182;48.174;11.562;2023-04-24T08:38:35;15.60;95.40
27803;DHT22;15182;48.174;11.562;2023-04-24T08:41:09;15.60;95.50
27803;DHT22;15182;48.174;11.562;2023-04-24T08:43:41;15.60;95.80
27803;DHT22;15182;48.174;11.562;2023-04-24T08:46:17;15.50;95.90
27803;DHT22;15182;48.174;11.562;2023-04-24T08:48:50;15.40;95.50
27803;DHT22;15182;48.174;11.562;2023-04-24T08:51:24;15.40;95.30
27803;DHT22;15182;48.174;11.562;2023-04-24T08:53:58;15.30;95.30
27803;DHT22;15182;48.174;11.562;2023-04-24T08:56:35;15.40;95.30
27803;DHT22;15182;48.174;11.562;2023-04-24T08:59:08;15.40;95.30
27803;DHT22;15182;48.174;11.562;2023-04-24T09:01:40;15.40;95.10
27803;DHT22;15182;48.174;11.562;2023-04-24T09:04:14;15.40;95.10
27803;DHT22;15182;48.174;11.562;2023-04-24T09:06:47;15.40;94.70
27803;DHT22;15182;48.174;11.562;2023-04-24T09:09:21;15.40;94.40
27803;DHT22;15182;48.174;11.562;2023-04-24T09:11:54;15.40;94.10
27803;DHT22;15182;48.174;11.562;2023-04-24T09:14:26;15.40;93.80
27803;DHT22;15182;48.174;11.562;2023-04-24T09:16:59;15.40;93.70
27803;DHT22;15182;48.174;11.562;2023-04-24T09:19:32;15.40;93.70
27803;DHT22;15182;48.174;11.562;2023-04-24T09:22:06;15.40;93.60
27803;DHT22;15182;48.174;11.562;2023-04-24T09:24:40;15.40;93.60
27803;DHT22;15182;48.174;11.562;2023-04-24T09:27:13;15.40;93.80
27803;DHT22;15182;48.174;11.562;2023-04-24T09:29:55;15.40;93.90
27803;DHT22;15182;48.174;11.562;2023-04-24T09:32:28;15.50;93.50
27803;DHT22;15182;48.174;11.562;2023-04-24T09:35:12;15.50;93.60
27803;DHT22;15182;48.174;11.562;2023-04-24T09:37:45;15.50;93.30
27803;DHT22;15182;48.174;11.562;2023-04-24T09:40:21;15.50;93.20
27803;DHT22;15182;48.174;11.562;2023-04-24T09:42:55;15.60;92.90
27803;DHT22;15182;48.174;11.562;2023-04-24T09:45:31;15.60;92.90
27803;DHT22;15182;48.174;11.562;2023-04-24T09:48:07;15.60;92.90
27803;DHT22;15182;48.174;11.562;2023-04-24T09:50:42;15.70;92.80
27803;DHT22;15182;48.174;11.562;2023-04-24T09:53:25;15.60;92.50
27803;DHT22;15182;48.174;11.562;2023-04-24T09:55:56;15.70;92.20
27803;DHT22;15182;48.174;11.562;2023-04-24T09:58:36;15.70;92.50
27803;DHT22;15182;48.174;11.562;2023-04-24T10:01:08;15.80;92.50
27803;DHT22;15182;48.174;11.562;2023-04-24T10:03:39;15.80;92.60
27803;DHT22;15182;48.174;11.562;2023-04-24T10:06:14;15.90;92.40
27803;DHT22;15182;48.174;11.562;2023-04-24T10:08:46;16.00;92.40
27803;DHT22;15182;48.174;11.562;2023-04-24T10:11:20;16.00;92.40
27803;DHT22;15182;48.174;11.562;2023-04-24T10:13:52;16.10;92.10
27803;DHT22;15182;48.174;11.562;2023-04-24T10:16:27;16.20;92.00
27803;DHT22;15182;48.174;11.562;2023-04-24T10:19:01;16.20;92.00
27803;DHT22;15182;48.174;11.562;2023-04-24T10:21:35;16.20;91.90
27803;DHT22;15182;48.174;11.562;2023-04-24T10:24:10;16.30;91.70
27803;DHT22;15182;48.174;11.562;2023-04-24T10:26:43;16.30;91.90
27803;DHT22;15182;48.174;11.562;2023-04-24T10:29:20;16.30;91.90
27803;DHT22;15182;48.174;11.562;2023-04-24T10:31:51;16.30;92.00
27803;DHT22;15182;48.174;11.562;2023-04-24T10:34:25;16.40;92.10
27803;DHT22;15182;48.174;11.562;2023-04-24T10:36:59;16.40;92.00
27803;DHT22;15182;48.174;11.562;2023-04-24T10:39:32;16.40;92.00
27803;DHT22;15182;48.174;11.562;2023-04-24T10:42:14;16.50;92.00
27803;DHT22;15182;48.174;11.562;2023-04-24T10:44:45;16.60;92.10
27803;DHT22;15182;48.174;11.562;2023-04-24T10:47:18;16.60;92.00
27803;DHT22;15182;48.174;11.562;2023-04-24T10:49:52;16.60;91.90
27803;DHT22;15182;48.174;11.562;2023-04-24T10:52:43;16.60;92.20
27803;DHT22;15182;48.174;11.562;2023-04-24T10:55:16;16.60;92.70
27803;DHT22;15182;48.174;11.562;2023-04-24T10:58:03;16.50;92.60
27803;DHT22;15182;48.174;11.562;2023-04-24T11:00:38;16.30;92.70
27803;DHT22;15182;48.174;11.562;2023-04-24T11:03:27;16.10;92.90
27803;DHT22;15182;48.174;11.562;2023-04-24T11:06:02;15.90;93.60
27803;DHT22;15182;48.174;11.562;2023-04-24T11:08:42;15.70;93.40
27803;DHT22;15182;48.174;11.562;2023-04-24T11:11:16;15.60;93.80
27803;DHT22;15182;48.174;11.562;2023-04-24T11:14:02;15.50;94.10
27803;DHT22;15182;48.174;11.562;2023-04-24T11:16:42;15.40;94.70
27803;DHT22;15182;48.174;11.562;2023-04-24T11:19:24;15.40;94.80
27803;DHT22;15182;48.174;11.562;2023-04-24T11:21:58;15.40;95.30
27803;DHT22;15182;48.174;11.562;2023-04-24T11:24:38;15.50;95.50
27803;DHT22;15182;48.174;11.562;2023-04-24T11:27:24;15.60;95.80
27803;DHT22;15182;48.174;11.562;2023-04-24T11:30:02;15.80;95.80
27803;DHT22;15182;48.174;11.562;2023-04-24T11:32:39;15.90;95.70
27803;DHT22;15182;48.174;11.562;2023-04-24T11:35:15;16.10;95.10
27803;DHT22;15182;48.174;11.562;2023-04-24T11:37:49;16.20;95.00
27803;DHT22;15182;48.174;11.562;2023-04-24T11:40:23;16.30;95.20
27803;DHT22;15182;48.174;11.562;2023-04-24T11:42:54;16.30;94.50
27803;DHT22;15182;48.174;11.562;2023-04-24T11:45:30;16.40;94.70
27803;DHT22;15182;48.174;11.562;2023-04-24T11:48:02;16.40;94.00
27803;DHT22;15182;48.174;11.562;2023-04-24T11:50:35;16.50;94.10
27803;DHT22;15182;48.174;11.562;2023-04-24T11:53:06;16.60;94.10
27803;DHT22;15182;48.174;11.562;2023-04-24T11:55:39;16.80;94.40
27803;DHT22;15182;48.174;11.562;2023-04-24T11:58:10;17.00;94.00
27803;DHT22;15182;48.174;11.562;2023-04-24T12:00:44;17.10;93.80
27803;DHT22;15182;48.174;11.562;2023-04-24T12:03:15;17.30;93.50
27803;DHT22;15182;48.174;11.562;2023-04-24T12:05:46;17.40;93.20
27803;DHT22;15182;48.174;11.562;2023-04-24T12:08:29;17.50;93.00
27803;DHT22;15182;48.174;11.562;2023-04-24T12:11:02;17.60;92.20
27803;DHT22;15182;48.174;11.562;2023-04-24T12:13:37;17.60;92.10
27803;DHT22;15182;48.174;11.562;2023-04-24T12:16:08;17.50;91.90
27803;DHT22;15182;48.174;11.562;2023-04-24T12:18:45;17.40;92.00
27803;DHT22;15182;48.174;11.562;2023-04-24T12:21:18;17.40;91.70
27803;DHT22;15182;48.174;11.562;2023-04-24T12:23:56;17.30;91.90
27803;DHT22;15182;48.174;11.562;2023-04-24T12:26:29;17.30;91.40
27803;DHT22;15182;48.174;11.562;2023-04-24T12:29:03;17.30;91.50
27803;DHT22;15182;48.174;11.562;2023-04-24T12:31:37;17.30;91.20
27803;DHT22;15182;48.174;11.562;2023-04-24T12:34:18;17.30;91.10
27803;DHT22;15182;48.174;11.562;2023-04-24T12:36:50;17.30;90.70
27803;DHT22;15182;48.174;11.562;2023-04-24T12:39:22;17.40;91.10
27803;DHT22;15182;48.174;11.562;2023-04-24T12:41:59;17.40;91.20
27803;DHT22;15182;48.174;11.562;2023-04-24T12:44:29;17.50;91.10
27803;DHT22;15182;48.174;11.562;2023-04-24T12:47:02;17.70;90.40
27803;DHT22;15182;48.174;11.562;2023-04-24T12:49:34;17.80;89.90
27803;DHT22;15182;48.174;11.562;2023-04-24T12:52:05;17.90;89.40
27803;DHT22;15182;48.174;11.562;2023-04-24T12:54:38;18.00;89.10
27803;DHT22;15182;48.174;11.562;2023-04-24T12:57:11;18.10;88.90
27803;DHT22;15182;48.174;11.562;2023-04-24T12:59:44;18.10;88.40
27803;DHT22;15182;48.174;11.562;2023-04-24T13:02:16;18.10;88.10
27803;DHT22;15182;48.174;11.562;2023-04-24T13:04:49;18.20;88.10
27803;DHT22;15182;48.174;11.562;2023-04-24T13:07:20;18.20;87.20
27803;DHT22;15182;48.174;11.562;2023-04-24T13:09:54;18.10;86.70
27803;DHT22;15182;48.174;11.562;2023-04-24T13:12:28;18.10;85.60
27803;DHT22;15182;48.174;11.562;2023-04-24T13:14:59;18.00;85.60
27803;DHT22;15182;48.174;11.562;2023-04-24T13:17:31;17.90;86.80
27803;DHT22;15182;48.174;11.562;2023-04-24T13:20:02;17.80;87.70
27803;DHT22;15182;48.174;11.562;2023-04-24T13:22:35;17.70;88.30
27803;DHT22;15182;48.174;11.562;2023-04-24T13:25:08;17.60;88.90
27803;DHT22;15182;48.174;11.562;2023-04-24T13:27:41;17.60;89.80
27803;DHT22;15182;48.174;11.562;2023-04-24T13:30:13;17.60;89.40
27803;DHT22;15182;48.174;11.562;2023-04-24T13:32:46;17.60;89.30
27803;DHT22;15182;48.174;11.562;2023-04-24T13:35:18;17.60;88.80
27803;DHT22;15182;48.174;11.562;2023-04-24T13:37:51;17.70;88.90
27803;DHT22;15182;48.174;11.562;2023-04-24T13:40:23;17.80;89.00
27803;DHT22;15182;48.174;11.562;2023-04-24T13:42:56;17.90;89.20
27803;DHT22;15182;48.174;11.562;2023-04-24T13:45:27;18.00;87.20
27803;DHT22;15182;48.174;11.562;2023-04-24T13:47:58;18.00;87.00
27803;DHT22;15182;48.174;11.562;2023-04-24T13:50:31;18.00;86.80
27803;DHT22;15182;48.174;11.562;2023-04-24T13:53:02;18.00;86.70
27803;DHT22;15182;48.174;11.562;2023-04-24T13:55:33;18.00;86.00
27803;DHT22;15182;48.174;11.562;2023-04-24T13:58:06;18.00;85.20
27803;DHT22;15182;48.174;11.562;2023-04-24T14:00:38;18.00;84.10
27803;DHT22;15182;48.174;11.562;2023-04-24T14:03:09;18.10;83.40
27803;DHT22;15182;48.174;11.562;2023-04-24T14:05:41;18.20;82.60
27803;DHT22;15182;48.174;11.562;2023-04-24T14:08:12;18.20;82.20
27803;DHT22;15182;48.174;11.562;2023-04-24T14:10:46;18.20;82.50
27803;DHT22;15182;48.174;11.562;2023-04-24T14:13:20;18.20;82.50
27803;DHT22;15182;48.174;11.562;2023-04-24T14:15:53;18.30;82.10
27803;DHT22;15182;48.174;11.562;2023-04-24T14:18:25;18.20;82.10
27803;DHT22;15182;48.174;11.562;2023-04-24T14:20:59;18.20;81.90
27803;DHT22;15182;48.174;11.562;2023-04-24T14:23:30;18.10;81.40
27803;DHT22;15182;48.174;11.562;2023-04-24T14:26:01;18.10;81.80
27803;DHT22;15182;48.174;11.562;2023-04-24T14:28:42;18.00;82.10
27803;DHT22;15182;48.174;11.562;2023-04-24T14:31:13;18.00;82.30
27803;DHT22;15182;48.174;11.562;2023-04-24T14:33:45;18.00;82.00
27803;DHT22;15182;48.174;11.562;2023-04-24T14:36:16;18.10;82.00
27803;DHT22;15182;48.174;11.562;2023-04-24T14:38:49;18.10;81.40
27803;DHT22;15182;48.174;11.562;2023-04-24T14:41:20;18.10;80.60
27803;DHT22;15182;48.174;11.562;2023-04-24T14:43:53;18.20;80.90
27803;DHT22;15182;48.174;11.562;2023-04-24T14:46:24;18.20;80.40
27803;DHT22;15182;48.174;11.562;2023-04-24T14:48:57;18.20;80.10
27803;DHT22;15182;48.174;11.562;2023-04-24T14:51:28;18.20;79.40
27803;DHT22;15182;48.174;11.562;2023-04-24T14:54:06;18.20;79.80
27803;DHT22;15182;48.174;11.562;2023-04-24T14:56:37;18.10;78.30
27803;DHT22;15182;48.174;11.562;2023-04-24T14:59:13;18.10;78.80
27803;DHT22;15182;48.174;11.562;2023-04-24T15:01:44;18.10;78.60
27803;DHT22;15182;48.174;11.562;2023-04-24T15:04:16;18.00;78.90
27803;DHT22;15182;48.174;11.562;2023-04-24T15:06:48;18.00;78.30
27803;DHT22;15182;48.174;11.562;2023-04-24T15:09:22;18.00;77.80
27803;DHT22;15182;48.174;11.562;2023-04-24T15:11:56;18.00;77.80
27803;DHT22;15182;48.174;11.562;2023-04-24T15:14:30;17.90;76.80
27803;DHT22;15182;48.174;11.562;2023-04-24T15:17:04;17.90;76.60
27803;DHT22;15182;48.174;11.562;2023-04-24T15:19:35;17.80;76.40
27803;DHT22;15182;48.174;11.562;2023-04-24T15:22:09;17.80;76.70
27803;DHT22;15182;48.174;11.562;2023-04-24T15:24:40;17.80;76.30
27803;DHT22;15182;48.174;11.562;2023-04-24T15:27:12;17.70;77.20
27803;DHT22;15182;48.174;11.562;2023-04-24T15:29:45;17.70;77.40
27803;DHT22;15182;48.174;11.562;2023-04-24T15:32:16;17.70;77.00
27803;DHT22;15182;48.174;11.562;2023-04-24T15:34:47;17.60;76.90
27803;DHT22;15182;48.174;11.562;2023-04-24T15:37:18;17.60;76.80
27803;DHT22;15182;48.174;11.562;2023-04-24T15:39:49;17.60;76.80
27803;DHT22;15182;48.174;11.562;2023-04-24T15:42:28;17.60;76.50
27803;DHT22;15182;48.174;11.562;2023-04-24T15:45:00;17.60;76.70
27803;DHT22;15182;48.174;11.562;2023-04-24T15:47:31;17.70;76.40
27803;DHT22;15182;48.174;11.562;2023-04-24T15:50:05;17.70;76.20
27803;DHT22;15182;48.174;11.562;2023-04-24T15:52:38;17.70;75.70
27803;DHT22;15182;48.174;11.562;2023-04-24T15:55:11;17.70;75.50